This is the latest recevied weather packets stored in our database for station/object KMASWX. If no packets are shown the sender has not sent any weather packets the latest 10 day(s).
| Time | Temp. | Humidity | Pressure | Rain* | Wind** | Luminosity | Snow |
|---|---|---|---|---|---|---|---|
| 1778166591 | 15° C | 52% | - | 0 mm | - | - | - |
| 1778165980 | 15.56° C | 54% | - | 0 mm | - | - | - |
| 1778165675 | 15° C | 59% | - | 0 mm | - | - | - |
| 1778165368 | 14.44° C | 60% | - | 0 mm | - | - | - |
| 1778165063 | 13.89° C | 63% | - | 0 mm | - | - | - |
| 1778164760 | 13.33° C | 64% | - | 0 mm | - | - | - |
| 1778164148 | 13.89° C | 62% | - | 0 mm | - | - | - |
| 1778163841 | 13.33° C | 63% | - | 0 mm | - | - | - |
| 1778163537 | 12.78° C | 63% | - | 0 mm | - | - | - |
| 1778162930 | 11.67° C | 65% | - | 0 mm | - | - | - |
| 1778162319 | 10.56° C | 69% | - | 0 mm | - | - | - |
| 1778162012 | 10.56° C | 70% | - | 0 mm | - | - | - |
| 1778161708 | 10° C | 72% | - | 0 mm | - | - | - |
| 1778161404 | 9.44° C | 72% | - | 0 mm | - | - | - |
| 1778161097 | 8.89° C | 71% | - | 0 mm | - | - | - |
| 1778160793 | 9.44° C | 70% | - | 0 mm | - | - | - |
| 1778160489 | 9.44° C | 70% | - | 0 mm | - | - | - |
| 1778160182 | 9.44° C | 71% | - | 0 mm | - | - | - |
| 1778159879 | 9.44° C | 71% | - | 0 mm | - | - | - |
| 1778159575 | 9.44° C | 71% | - | 0 mm | - | - | - |
| 1778159268 | 9.44° C | 72% | - | 0 mm | - | - | - |
| 1778158965 | 9.44° C | 72% | - | 0 mm | - | - | - |
| 1778158656 | 9.44° C | 73% | - | 0 mm | - | - | - |
| 1778158352 | 9.44° C | 73% | - | 0 mm | - | - | - |
| 1778158044 | 9.44° C | 72% | - | 0 mm | - | - | - |
* Rain latest 24 hours (hover to see other rain measurements)
** Current wind speed in m/s (hover to see current wind gust speed)